createdAt,value
2022-10-17T04:00:48.319Z,11.87
2022-10-17T04:01:49.640Z,11.88
2022-10-17T04:02:49.998Z,11.87
2022-10-17T04:03:50.364Z,11.87
2022-10-17T04:04:50.734Z,11.86
2022-10-17T04:05:51.087Z,11.86
2022-10-17T04:06:51.435Z,11.84
2022-10-17T04:07:51.827Z,11.87
2022-10-17T04:08:52.143Z,11.87
2022-10-17T04:09:52.555Z,11.84
2022-10-17T04:10:52.883Z,11.83
2022-10-17T04:11:53.246Z,11.81
2022-10-17T04:12:53.602Z,11.81
2022-10-17T04:13:53.991Z,11.83
2022-10-17T04:14:54.371Z,11.81
2022-10-17T04:15:54.740Z,11.80
2022-10-17T04:16:55.074Z,11.80
2022-10-17T04:17:55.515Z,11.80
2022-10-17T04:18:55.800Z,11.80
2022-10-17T04:19:56.151Z,11.80
2022-10-17T04:20:56.509Z,11.80
2022-10-17T04:21:56.850Z,11.78
2022-10-17T04:22:57.247Z,11.75
2022-10-17T04:23:57.563Z,11.73
2022-10-17T04:24:58.023Z,11.70
2022-10-17T04:25:58.303Z,11.69
2022-10-17T04:26:58.730Z,11.69
2022-10-17T04:27:59.031Z,11.70
2022-10-17T04:28:59.380Z,11.75
2022-10-17T04:29:59.771Z,11.78
2022-10-17T04:31:00.095Z,11.80
2022-10-17T04:32:00.459Z,11.81
2022-10-17T04:33:00.854Z,11.80
2022-10-17T04:34:01.198Z,11.80
2022-10-17T04:35:01.629Z,11.80
2022-10-17T04:36:01.905Z,11.77
2022-10-17T04:37:02.265Z,11.77
2022-10-17T04:38:02.648Z,11.75
2022-10-17T04:39:03.008Z,11.73
2022-10-17T04:40:03.347Z,11.72
2022-10-17T04:41:03.715Z,11.69
2022-10-17T04:42:04.071Z,11.66
2022-10-17T04:43:04.441Z,11.65
2022-10-17T04:44:04.815Z,11.62
2022-10-17T04:45:05.207Z,11.59
2022-10-17T04:46:05.555Z,11.60
2022-10-17T04:47:05.870Z,11.55
2022-10-17T04:48:06.243Z,11.54
2022-10-17T04:49:06.617Z,11.52
2022-10-17T04:50:06.985Z,11.51
2022-10-17T04:51:07.303Z,11.48
2022-10-17T04:52:07.655Z,11.48
2022-10-17T04:53:08.008Z,11.45
2022-10-17T04:54:08.416Z,11.43
2022-10-17T04:55:08.750Z,11.41
2022-10-17T04:56:09.099Z,11.40
2022-10-17T04:57:09.474Z,11.35
2022-10-17T04:58:09.846Z,11.35
2022-10-17T04:59:10.208Z,11.32
2022-10-17T05:00:10.648Z,11.30
2022-10-17T05:01:11.131Z,11.29
2022-10-17T05:02:11.309Z,11.27
2022-10-17T05:03:11.687Z,11.22
2022-10-17T05:04:12.085Z,11.22
2022-10-17T05:05:12.553Z,11.22
2022-10-17T05:06:12.787Z,11.22
2022-10-17T05:07:13.143Z,11.18
2022-10-17T05:08:13.500Z,11.17
2022-10-17T05:09:13.863Z,11.17
2022-10-17T05:10:14.318Z,11.17
2022-10-17T05:11:14.626Z,11.17
2022-10-17T05:12:14.955Z,11.15
2022-10-17T05:13:15.390Z,11.14
2022-10-17T05:14:15.676Z,11.12
2022-10-17T05:15:16.035Z,11.11
2022-10-17T05:16:16.433Z,11.11
2022-10-17T05:17:16.790Z,11.08
2022-10-17T05:18:17.139Z,11.05
2022-10-17T05:19:17.276Z,11.05
2022-10-17T05:20:17.454Z,11.04
2022-10-17T05:21:17.702Z,11.04
2022-10-17T05:22:17.870Z,11.02
2022-10-17T05:23:18.173Z,11.04
2022-10-17T05:24:18.341Z,10.97
2022-10-17T05:25:18.512Z,10.97
2022-10-17T05:26:18.667Z,10.90
2022-10-17T05:27:18.839Z,10.87
2022-10-17T05:28:19.003Z,10.82
2022-10-17T05:29:19.166Z,10.76
2022-10-17T05:30:19.475Z,10.71
2022-10-17T05:31:19.632Z,10.68
2022-10-17T05:32:19.804Z,10.64
2022-10-17T05:33:20.001Z,10.61
2022-10-17T05:34:20.248Z,10.57
2022-10-17T05:35:20.354Z,10.54
2022-10-17T05:36:20.654Z,10.53
2022-10-17T05:37:20.812Z,10.54
2022-10-17T05:38:21.101Z,10.54
2022-10-17T05:39:21.285Z,10.57
2022-10-17T05:40:21.617Z,10.57
2022-10-17T05:41:21.765Z,10.57
2022-10-17T05:42:22.000Z,10.59
2022-10-17T05:43:22.265Z,10.60
2022-10-17T05:44:22.508Z,10.60
2022-10-17T05:45:22.773Z,10.60
2022-10-17T05:46:22.867Z,10.61
2022-10-17T05:47:23.047Z,10.63
2022-10-17T05:48:23.347Z,10.63
2022-10-17T05:49:33.380Z,10.63
2022-10-17T05:50:23.840Z,10.61
2022-10-17T05:51:24.115Z,10.60
2022-10-17T05:52:24.331Z,10.57
2022-10-17T05:53:24.474Z,10.53
2022-10-17T05:54:24.666Z,10.48
2022-10-17T05:55:24.904Z,10.42
2022-10-17T05:56:25.026Z,10.40
2022-10-17T05:57:25.214Z,10.40
2022-10-17T05:58:45.571Z,10.37
2022-10-17T05:59:25.598Z,10.38
2022-10-17T06:00:25.790Z,10.37
2022-10-17T06:01:25.959Z,10.38
2022-10-17T06:02:26.264Z,10.37
2022-10-17T06:03:26.314Z,10.38
2022-10-17T06:04:26.660Z,10.38
2022-10-17T06:05:26.715Z,10.40
2022-10-17T06:06:26.912Z,10.42
2022-10-17T06:07:27.075Z,10.42
2022-10-17T06:08:27.240Z,10.42
2022-10-17T06:09:27.418Z,10.46
2022-10-17T06:10:27.636Z,10.46
2022-10-17T06:11:27.803Z,10.49
2022-10-17T06:12:28.220Z,10.53
2022-10-17T06:13:28.132Z,10.60
2022-10-17T06:14:28.303Z,10.60
2022-10-17T06:15:28.512Z,10.64
2022-10-17T06:16:28.647Z,10.68
2022-10-17T06:17:28.834Z,10.74
2022-10-17T06:18:29.021Z,10.78
2022-10-17T06:19:29.182Z,10.82
2022-10-17T06:20:29.378Z,10.86
2022-10-17T06:21:29.656Z,10.94
2022-10-17T06:22:30.180Z,11.08
2022-10-17T06:23:30.000Z,11.18
2022-10-17T06:24:30.161Z,11.29
2022-10-17T06:25:30.370Z,11.37
2022-10-17T06:26:30.535Z,11.45
2022-10-17T06:27:30.716Z,11.66
2022-10-17T06:28:30.953Z,11.73
2022-10-17T06:29:31.153Z,11.99
2022-10-17T06:30:31.309Z,12.09
2022-10-17T06:31:31.499Z,12.21
2022-10-17T06:32:32.074Z,12.29
2022-10-17T06:33:31.823Z,12.47
2022-10-17T06:34:32.034Z,12.61
2022-10-17T06:35:32.194Z,12.67
2022-10-17T06:36:32.376Z,12.75
2022-10-17T06:37:35.562Z,12.90
2022-10-17T06:38:32.765Z,12.95
2022-10-17T06:39:32.945Z,13.04
2022-10-17T06:40:33.156Z,13.11
2022-10-17T06:41:33.328Z,13.18
2022-10-17T06:42:33.488Z,13.23
2022-10-17T06:43:33.749Z,13.28
2022-10-17T06:44:33.870Z,13.33
2022-10-17T06:45:34.113Z,13.33
2022-10-17T06:46:34.327Z,13.44
2022-10-17T06:47:34.413Z,13.50
2022-10-17T06:48:34.639Z,13.52
2022-10-17T06:49:34.801Z,13.57
2022-10-17T06:50:35.052Z,13.60
2022-10-17T06:51:35.198Z,13.67
2022-10-17T06:52:35.389Z,13.72
2022-10-17T06:53:35.588Z,13.78
2022-10-17T06:54:35.809Z,13.83
2022-10-17T06:55:36.022Z,13.89
2022-10-17T06:56:36.166Z,13.93
2022-10-17T06:57:36.338Z,13.99
2022-10-17T06:58:36.500Z,14.04
2022-10-17T06:59:36.706Z,14.05
2022-10-17T07:00:37.162Z,14.11
2022-10-17T07:01:37.421Z,14.14
2022-10-17T07:02:37.235Z,14.18
2022-10-17T07:03:37.435Z,14.26
2022-10-17T07:04:37.619Z,14.29
2022-10-17T07:05:37.838Z,14.32
2022-10-17T07:06:38.005Z,14.40
2022-10-17T07:07:40.187Z,14.45
2022-10-17T07:08:38.422Z,14.53
2022-10-17T07:09:38.599Z,14.59
2022-10-17T07:10:38.783Z,14.62
2022-10-17T07:11:38.976Z,14.69
2022-10-17T07:12:39.121Z,14.73
2022-10-17T07:13:39.528Z,14.79
2022-10-17T07:14:39.554Z,14.86
2022-10-17T07:15:39.699Z,14.91
2022-10-17T07:16:39.889Z,14.91
2022-10-17T07:17:40.095Z,14.96
2022-10-17T07:18:40.298Z,14.97
2022-10-17T07:19:40.516Z,15.00
2022-10-17T07:20:40.719Z,15.03
2022-10-17T07:21:40.879Z,15.06
2022-10-17T07:22:41.082Z,15.07
2022-10-17T07:23:41.278Z,15.07
2022-10-17T07:24:41.505Z,15.11
2022-10-17T07:25:41.682Z,15.18
2022-10-17T07:26:41.845Z,15.21
2022-10-17T07:27:42.055Z,15.25
2022-10-17T07:28:42.302Z,15.29
2022-10-17T07:29:42.492Z,15.28
2022-10-17T07:30:42.709Z,15.31
2022-10-17T07:31:42.853Z,15.37
2022-10-17T07:32:43.017Z,15.37
2022-10-17T07:33:43.423Z,15.35
2022-10-17T07:34:43.379Z,15.36
2022-10-17T07:35:43.601Z,15.36
2022-10-17T07:36:43.764Z,15.37
2022-10-17T07:37:43.970Z,15.37
2022-10-17T07:38:44.169Z,15.40
2022-10-17T07:39:44.391Z,15.44
2022-10-17T07:40:44.555Z,15.47
2022-10-17T07:41:44.721Z,15.54
2022-10-17T07:42:44.957Z,15.57
2022-10-17T07:43:45.112Z,15.62
2022-10-17T07:44:45.306Z,15.68
2022-10-17T07:45:45.505Z,15.75
2022-10-17T07:46:45.668Z,15.82
2022-10-17T07:47:45.879Z,15.86
2022-10-17T07:48:46.057Z,15.94
2022-10-17T07:49:46.280Z,15.97
2022-10-17T07:50:46.434Z,16.02
2022-10-17T07:52:46.794Z,16.09
2022-10-17T07:53:48.822Z,16.13
2022-10-17T07:54:47.184Z,16.16
2022-10-17T07:55:47.363Z,16.21
2022-10-17T07:56:47.558Z,16.32
2022-10-17T07:57:47.745Z,16.38
2022-10-17T07:58:47.981Z,16.46
2022-10-17T07:59:48.111Z,16.50
2022-10-17T08:00:48.602Z,16.53
2022-10-17T08:01:48.476Z,16.61
2022-10-17T08:02:48.722Z,16.65
2022-10-17T08:03:48.863Z,16.75
2022-10-17T08:04:49.020Z,16.76
2022-10-17T08:05:49.237Z,16.76
2022-10-17T08:06:53.444Z,16.71
2022-10-17T08:07:49.597Z,16.74
2022-10-17T08:08:49.786Z,16.81
2022-10-17T08:09:50.000Z,16.86
2022-10-17T08:10:50.187Z,16.86
2022-10-17T08:11:50.406Z,16.86
2022-10-17T08:12:50.519Z,16.89
2022-10-17T08:13:50.738Z,16.93
2022-10-17T08:14:50.929Z,16.94
2022-10-17T08:15:51.156Z,16.97
2022-10-17T08:16:51.285Z,16.96
2022-10-17T08:17:51.480Z,16.97
2022-10-17T08:18:51.654Z,16.99
2022-10-17T08:19:51.871Z,16.97
2022-10-17T08:20:54.623Z,17.02
2022-10-17T08:21:52.230Z,17.06
2022-10-17T08:22:52.429Z,17.09
2022-10-17T08:23:52.630Z,17.11
2022-10-17T08:24:52.806Z,17.15
2022-10-17T08:25:53.040Z,17.15
2022-10-17T08:26:53.199Z,17.19
2022-10-17T08:27:53.481Z,17.22
2022-10-17T08:28:53.633Z,17.22
2022-10-17T08:29:53.761Z,17.23
2022-10-17T08:30:53.980Z,17.22
2022-10-17T08:31:58.614Z,17.24
2022-10-17T08:32:54.356Z,17.26
2022-10-17T08:33:54.514Z,17.29
2022-10-17T08:34:54.682Z,17.31
2022-10-17T08:35:54.883Z,17.31
2022-10-17T08:36:55.045Z,17.34
2022-10-17T08:37:55.247Z,17.38
2022-10-17T08:38:55.470Z,17.36
2022-10-17T08:39:55.637Z,17.38
2022-10-17T08:40:55.858Z,17.41
2022-10-17T08:41:56.022Z,17.45
2022-10-17T08:42:56.223Z,17.49
2022-10-17T08:43:56.436Z,17.51
2022-10-17T08:44:56.625Z,17.57
2022-10-17T08:45:56.850Z,17.71
2022-10-17T08:46:57.024Z,17.80
2022-10-17T08:47:57.227Z,17.90
2022-10-17T08:48:57.383Z,17.98
2022-10-17T08:49:57.783Z,18.07
2022-10-17T08:50:57.778Z,18.18
2022-10-17T08:51:57.956Z,18.26
2022-10-17T08:52:58.131Z,18.34
2022-10-17T08:53:58.345Z,18.43
2022-10-17T08:54:58.551Z,18.53
2022-10-17T08:55:58.779Z,18.60
2022-10-17T08:56:58.950Z,18.63
2022-10-17T08:57:59.121Z,18.73
2022-10-17T08:58:59.312Z,18.83
2022-10-17T08:59:59.513Z,18.98
2022-10-17T09:00:59.734Z,19.00
2022-10-17T09:01:59.898Z,19.04
2022-10-17T09:03:00.190Z,19.08
2022-10-17T09:04:00.258Z,19.16
2022-10-17T09:05:00.432Z,19.24
2022-10-17T09:06:00.648Z,19.27
2022-10-17T09:07:00.815Z,19.34
2022-10-17T09:08:01.029Z,19.40
2022-10-17T09:09:01.192Z,19.44
2022-10-17T09:10:01.401Z,19.51
2022-10-17T09:11:01.601Z,19.63
2022-10-17T09:12:01.788Z,19.62
2022-10-17T09:13:07.042Z,19.62
2022-10-17T09:14:02.162Z,19.62
2022-10-17T09:15:02.348Z,19.59
2022-10-17T09:16:02.586Z,19.56
2022-10-17T09:17:02.744Z,19.52
2022-10-17T09:18:02.954Z,19.56
2022-10-17T09:19:03.141Z,19.62
2022-10-17T09:20:03.358Z,19.58
2022-10-17T09:21:03.556Z,19.63
2022-10-17T09:22:03.749Z,19.69
2022-10-17T09:23:03.965Z,19.70
2022-10-17T09:24:09.481Z,19.69
2022-10-17T09:25:04.291Z,19.73
2022-10-17T09:26:04.508Z,19.76
2022-10-17T09:27:04.699Z,19.81
2022-10-17T09:28:04.893Z,19.85
2022-10-17T09:29:05.107Z,19.82
2022-10-17T09:30:07.140Z,19.84
2022-10-17T09:31:05.432Z,19.88
2022-10-17T09:32:05.598Z,19.86
2022-10-17T09:33:05.815Z,19.92
2022-10-17T09:34:05.985Z,19.96
2022-10-17T09:35:06.166Z,20.00
2022-10-17T09:36:06.342Z,20.06
2022-10-17T09:37:06.509Z,20.13
2022-10-17T09:38:06.724Z,20.16
2022-10-17T09:39:06.888Z,20.14
2022-10-17T09:40:07.059Z,20.14
2022-10-17T09:41:25.573Z,20.14
2022-10-17T09:42:07.399Z,20.18
2022-10-17T09:43:07.572Z,20.21
2022-10-17T09:44:07.790Z,20.32
2022-10-17T09:45:07.960Z,20.41
2022-10-17T09:46:08.152Z,20.41
2022-10-17T09:47:08.371Z,20.50
2022-10-17T09:48:08.499Z,20.59
2022-10-17T09:49:10.276Z,20.52
2022-10-17T09:50:08.907Z,20.55
2022-10-17T09:51:21.942Z,20.59
2022-10-17T09:52:09.300Z,20.65
2022-10-17T09:53:09.452Z,20.67
2022-10-17T09:54:09.636Z,20.69
2022-10-17T09:55:09.878Z,20.52
2022-10-17T09:56:10.025Z,20.58
2022-10-17T09:57:10.233Z,20.62
2022-10-17T09:58:10.368Z,20.65
2022-10-17T09:59:13.798Z,20.60
2022-10-17T10:00:10.803Z,20.63
2022-10-17T10:01:11.015Z,20.60
2022-10-17T10:02:11.125Z,20.59
2022-10-17T10:03:11.320Z,20.62
2022-10-17T10:04:11.532Z,20.74
2022-10-17T10:05:11.728Z,20.70
2022-10-17T10:06:11.957Z,20.69
2022-10-17T10:07:12.110Z,20.66
2022-10-17T10:08:12.315Z,20.69
2022-10-17T10:09:12.613Z,20.77
2022-10-17T10:10:12.713Z,20.72
2022-10-17T10:11:13.965Z,20.67
2022-10-17T10:12:13.071Z,20.72
2022-10-17T10:13:13.233Z,20.72
2022-10-17T10:14:13.444Z,20.74
2022-10-17T10:15:13.649Z,20.77
2022-10-17T10:16:13.890Z,20.81
2022-10-17T10:17:14.048Z,20.77
2022-10-17T10:18:14.276Z,20.75
2022-10-17T10:19:14.443Z,20.80
2022-10-17T10:20:14.619Z,20.82
2022-10-17T10:21:14.803Z,20.88
2022-10-17T10:22:14.978Z,21.00
2022-10-17T10:23:15.181Z,20.97
2022-10-17T10:24:15.354Z,20.93
2022-10-17T10:25:15.537Z,20.88
2022-10-17T10:26:18.933Z,20.88
2022-10-17T10:27:15.940Z,20.88
2022-10-17T10:28:16.091Z,20.90
2022-10-17T10:29:16.290Z,20.92
2022-10-17T10:30:16.529Z,20.92
2022-10-17T10:31:16.703Z,20.90
2022-10-17T10:32:16.892Z,20.80
2022-10-17T10:33:17.090Z,20.78
2022-10-17T10:34:17.237Z,20.77
2022-10-17T10:35:17.413Z,20.70
2022-10-17T10:36:17.634Z,20.67
2022-10-17T10:37:17.803Z,20.70
2022-10-17T10:38:18.034Z,20.72
2022-10-17T10:39:18.212Z,20.74
2022-10-17T10:40:18.402Z,20.66
2022-10-17T10:41:18.576Z,20.62
2022-10-17T10:42:18.745Z,20.65
2022-10-17T10:43:18.952Z,20.63
2022-10-17T10:44:19.150Z,20.63
2022-10-17T10:45:42.851Z,20.59
2022-10-17T10:46:19.566Z,20.55
2022-10-17T10:47:19.741Z,20.51
2022-10-17T10:48:19.932Z,20.56
2022-10-17T10:49:20.127Z,20.50
2022-10-17T10:50:20.330Z,20.51
2022-10-17T10:51:20.699Z,20.50
2022-10-17T10:52:20.735Z,20.48
2022-10-17T10:53:20.955Z,20.41
2022-10-17T10:54:21.139Z,20.40
2022-10-17T10:55:21.333Z,20.37
2022-10-17T10:56:21.562Z,20.37
2022-10-17T10:57:21.722Z,20.39
2022-10-17T10:58:21.922Z,20.40
2022-10-17T10:59:22.084Z,20.34
2022-10-17T11:00:22.326Z,20.36
2022-10-17T11:01:22.512Z,20.36
2022-10-17T11:02:22.672Z,20.36
2022-10-17T11:03:22.890Z,20.40
2022-10-17T11:04:23.051Z,20.43
2022-10-17T11:05:23.213Z,20.37
2022-10-17T11:06:23.475Z,20.36
2022-10-17T11:07:23.628Z,20.43
2022-10-17T11:08:23.816Z,20.41
2022-10-17T11:09:23.994Z,20.40
2022-10-17T11:10:24.207Z,20.40
2022-10-17T11:11:24.431Z,20.40
2022-10-17T11:12:24.603Z,20.48
2022-10-17T11:13:24.754Z,20.56
2022-10-17T11:14:24.956Z,20.58
2022-10-17T11:15:25.150Z,20.62
2022-10-17T11:16:25.344Z,20.62
2022-10-17T11:17:25.521Z,20.70
2022-10-17T11:18:25.814Z,20.69
2022-10-17T11:19:25.865Z,20.70
2022-10-17T11:20:26.086Z,20.74
2022-10-17T11:21:26.249Z,20.74
2022-10-17T11:22:29.039Z,20.75
2022-10-17T11:23:26.598Z,20.77
2022-10-17T11:24:26.795Z,20.70
2022-10-17T11:25:26.967Z,20.74
2022-10-17T11:26:27.200Z,20.70
2022-10-17T11:27:27.360Z,20.70
2022-10-17T11:28:27.594Z,20.67
2022-10-17T11:29:27.760Z,20.65
2022-10-17T11:30:27.977Z,20.67
2022-10-17T11:31:28.156Z,20.70
2022-10-17T11:32:28.596Z,20.69
2022-10-17T11:33:28.508Z,20.70
2022-10-17T11:34:28.723Z,20.69
2022-10-17T11:35:28.929Z,20.67
2022-10-17T11:36:29.100Z,20.72
2022-10-17T11:37:29.272Z,20.67
2022-10-17T11:38:29.426Z,20.69
2022-10-17T11:39:29.643Z,20.67
2022-10-17T11:40:29.813Z,20.69
2022-10-17T11:41:29.987Z,20.69
2022-10-17T11:42:30.533Z,20.62
2022-10-17T11:43:30.365Z,20.56
2022-10-17T11:44:30.566Z,20.51
2022-10-17T11:45:30.693Z,20.50
2022-10-17T11:46:30.930Z,20.50
2022-10-17T11:47:31.116Z,20.48
2022-10-17T11:48:31.262Z,20.43
2022-10-17T11:49:33.979Z,20.40
2022-10-17T11:52:51.789Z,20.34
2022-10-17T11:53:32.237Z,20.32
2022-10-17T11:54:32.425Z,20.29
2022-10-17T11:55:32.581Z,20.29
2022-10-17T11:56:32.813Z,20.25
2022-10-17T11:57:32.987Z,20.24
2022-10-17T11:58:33.179Z,20.11
2022-10-17T11:59:33.382Z,19.99
2022-10-17T12:00:35.775Z,19.88
2022-10-17T12:01:33.809Z,19.67
2022-10-17T12:02:33.936Z,19.47
2022-10-17T12:03:34.215Z,19.26
2022-10-17T12:04:34.424Z,19.02
2022-10-17T12:05:34.505Z,18.86
2022-10-17T12:06:34.741Z,18.73
2022-10-17T12:07:34.916Z,18.71
2022-10-17T12:08:35.100Z,18.63
2022-10-17T12:09:35.269Z,18.60
2022-10-17T12:10:35.466Z,18.58
2022-10-17T12:11:35.691Z,18.56
2022-10-17T12:12:35.898Z,18.55
2022-10-17T12:13:36.042Z,18.49
2022-10-17T12:14:36.229Z,18.43
2022-10-17T12:15:36.407Z,18.35
2022-10-17T12:16:36.646Z,18.40
2022-10-17T12:17:36.805Z,18.41
2022-10-17T12:18:36.960Z,18.41
2022-10-17T12:19:38.017Z,18.41
2022-10-17T12:20:37.378Z,18.40
2022-10-17T12:21:40.402Z,18.41
2022-10-17T12:22:38.021Z,18.40
2022-10-17T12:23:38.470Z,18.37
2022-10-17T12:24:38.303Z,18.40
2022-10-17T12:25:38.351Z,18.41
2022-10-17T12:26:38.489Z,18.47
2022-10-17T12:27:38.692Z,18.50
2022-10-17T12:28:39.512Z,18.55
2022-10-17T12:29:39.026Z,18.59
2022-10-17T12:30:39.201Z,18.60
2022-10-17T12:31:39.416Z,18.65
2022-10-17T12:33:00.588Z,18.68
2022-10-17T12:33:39.828Z,18.65
2022-10-17T12:34:39.982Z,18.65
2022-10-17T12:35:40.185Z,18.63
2022-10-17T12:36:40.400Z,18.59
2022-10-17T12:37:40.584Z,18.56
2022-10-17T12:38:40.813Z,18.58
2022-10-17T12:39:40.951Z,18.56
2022-10-17T12:40:42.229Z,18.58
2022-10-17T12:41:41.385Z,18.58
2022-10-17T12:42:41.571Z,18.55
2022-10-17T12:43:44.676Z,18.52
2022-10-17T12:44:41.924Z,18.53
2022-10-17T12:45:42.126Z,18.55
2022-10-17T12:46:42.362Z,18.50
2022-10-17T12:47:42.652Z,18.49
2022-10-17T12:48:42.692Z,18.47
2022-10-17T12:49:42.879Z,18.43
2022-10-17T12:50:43.078Z,18.41
2022-10-17T12:51:43.226Z,18.40
2022-10-17T12:52:43.544Z,18.38
2022-10-17T12:53:43.695Z,18.37
2022-10-17T12:54:53.539Z,18.37
2022-10-17T12:55:44.065Z,18.35
2022-10-17T12:56:44.221Z,18.37
2022-10-17T12:57:44.510Z,18.41
2022-10-17T12:58:44.679Z,18.41
2022-10-17T12:59:44.863Z,18.40
2022-10-17T13:00:59.572Z,18.35
2022-10-17T13:01:46.266Z,18.29
2022-10-17T13:02:45.389Z,18.20
2022-10-17T13:03:45.553Z,18.11
2022-10-17T13:04:45.736Z,17.97
2022-10-17T13:05:45.922Z,17.87
2022-10-17T13:06:46.113Z,17.82
2022-10-17T13:07:46.320Z,17.79
2022-10-17T13:08:49.776Z,17.76
2022-10-17T13:09:46.751Z,17.74
2022-10-17T13:10:49.078Z,17.70
2022-10-17T13:11:47.065Z,17.67
2022-10-17T13:12:47.238Z,17.67
2022-10-17T13:13:47.482Z,17.65
2022-10-17T13:14:47.629Z,17.64
2022-10-17T13:15:47.843Z,17.64
2022-10-17T13:16:48.058Z,17.60
2022-10-17T13:17:48.235Z,17.59
2022-10-17T13:18:48.391Z,17.59
2022-10-17T13:19:48.595Z,17.57
2022-10-17T13:20:48.802Z,17.57
2022-10-17T13:21:49.020Z,17.60
2022-10-17T13:22:49.192Z,17.59
2022-10-17T13:23:49.379Z,17.59
2022-10-17T13:24:49.660Z,17.60
2022-10-17T13:25:49.735Z,17.60
2022-10-17T13:26:49.938Z,17.57
2022-10-17T13:27:50.137Z,17.59
2022-10-17T13:28:50.426Z,17.56
2022-10-17T13:29:50.483Z,17.57
2022-10-17T13:30:52.060Z,17.59
2022-10-17T13:31:50.873Z,17.57
2022-10-17T13:32:51.036Z,17.56
2022-10-17T13:33:51.215Z,17.57
2022-10-17T13:34:51.393Z,17.57
2022-10-17T13:36:06.941Z,17.59
2022-10-17T13:36:51.804Z,17.60
2022-10-17T13:37:54.067Z,17.59
2022-10-17T13:38:52.223Z,17.59
2022-10-17T13:39:55.543Z,17.57
2022-10-17T13:40:58.017Z,17.57
2022-10-17T13:41:52.717Z,17.57
2022-10-17T13:42:52.877Z,17.54
2022-10-17T13:43:53.066Z,17.56
2022-10-17T13:44:53.245Z,17.54
2022-10-17T13:45:53.476Z,17.56
2022-10-17T13:46:53.655Z,17.54
2022-10-17T13:47:53.826Z,17.54
2022-10-17T13:48:54.008Z,17.54
2022-10-17T13:49:55.513Z,17.52
2022-10-17T13:50:54.388Z,17.49
2022-10-17T13:51:54.590Z,17.52
2022-10-17T13:52:54.735Z,17.51
2022-10-17T13:53:54.953Z,17.51
2022-10-17T13:54:55.099Z,17.52
2022-10-17T13:56:09.489Z,17.52
2022-10-17T13:57:55.714Z,17.52
2022-10-17T13:58:55.871Z,17.51
2022-10-17T13:59:56.058Z,17.49
2022-10-17T14:00:56.333Z,17.51
2022-10-17T14:01:56.478Z,17.52
2022-10-17T14:02:56.599Z,17.51
2022-10-17T14:04:08.361Z,17.51
2022-10-17T14:05:16.112Z,17.52
2022-10-17T14:05:57.257Z,17.54
2022-10-17T14:06:57.454Z,17.54
2022-10-17T14:08:16.906Z,17.54
2022-10-17T14:08:57.805Z,17.54
2022-10-17T14:09:57.996Z,17.54
2022-10-17T14:10:58.178Z,17.56
2022-10-17T14:11:58.366Z,17.56
2022-10-17T14:12:58.557Z,17.56
2022-10-17T14:13:58.709Z,17.54
2022-10-17T14:15:10.112Z,17.56
2022-10-17T14:15:59.128Z,17.56
2022-10-17T14:16:59.326Z,17.57
2022-10-17T14:18:00.247Z,17.57
2022-10-17T14:18:59.694Z,17.56
2022-10-17T14:20:16.415Z,17.56
2022-10-17T14:22:00.305Z,17.54
2022-10-17T14:24:00.723Z,17.54
2022-10-17T14:25:02.611Z,17.54
2022-10-17T14:26:01.045Z,17.52
2022-10-17T14:27:01.195Z,17.52
2022-10-17T14:28:01.364Z,17.52
2022-10-17T14:29:01.585Z,17.52
2022-10-17T14:30:01.728Z,17.56
2022-10-17T14:31:01.895Z,17.54
2022-10-17T14:32:02.134Z,17.54
2022-10-17T14:33:02.299Z,17.54
2022-10-17T14:34:02.536Z,17.54
2022-10-17T14:35:18.765Z,17.52
2022-10-17T14:36:02.903Z,17.54
2022-10-17T14:37:03.078Z,17.54
2022-10-17T14:38:03.259Z,17.52
2022-10-17T14:39:03.457Z,17.52
2022-10-17T14:40:03.640Z,17.52
2022-10-17T14:41:30.581Z,17.51
2022-10-17T14:42:04.643Z,17.52
2022-10-17T14:43:04.179Z,17.52
2022-10-17T14:44:04.378Z,17.52
2022-10-17T14:45:04.583Z,17.52
2022-10-17T14:46:04.756Z,17.52
2022-10-17T14:47:18.625Z,17.52
2022-10-17T14:48:05.167Z,17.52
2022-10-17T14:49:05.312Z,17.54
2022-10-17T14:50:05.503Z,17.52
2022-10-17T14:51:05.684Z,17.52
2022-10-17T14:52:07.796Z,17.51
2022-10-17T14:53:06.030Z,17.51
2022-10-17T14:54:06.250Z,17.52
2022-10-17T14:55:06.436Z,17.51
2022-10-17T14:56:06.606Z,17.52
2022-10-17T14:57:06.777Z,17.49
2022-10-17T14:58:06.965Z,17.52
2022-10-17T14:59:11.753Z,17.51
2022-10-17T15:00:07.290Z,17.51
2022-10-17T15:01:07.458Z,17.49
2022-10-17T15:02:07.671Z,17.49
2022-10-17T15:03:07.874Z,17.48
2022-10-17T15:04:08.005Z,17.49
2022-10-17T15:05:12.866Z,17.51
2022-10-17T15:06:08.344Z,17.49
2022-10-17T15:07:08.550Z,17.49
2022-10-17T15:08:08.782Z,17.48
2022-10-17T15:09:08.914Z,17.48
2022-10-17T15:10:09.108Z,17.48
2022-10-17T15:11:09.285Z,17.48
2022-10-17T15:12:09.573Z,17.49
2022-10-17T15:13:27.670Z,17.48
2022-10-17T15:14:09.920Z,17.49
2022-10-17T15:15:10.071Z,17.49
2022-10-17T15:16:10.279Z,17.48
2022-10-17T15:17:10.498Z,17.49
2022-10-17T15:18:10.645Z,17.46
2022-10-17T15:19:10.833Z,17.45
2022-10-17T15:20:10.997Z,17.44
2022-10-17T15:21:25.641Z,17.44
2022-10-17T15:22:11.395Z,17.44
2022-10-17T15:23:11.543Z,17.42
2022-10-17T15:24:11.725Z,17.42
2022-10-17T15:25:11.892Z,17.42
2022-10-17T15:26:12.068Z,17.41
2022-10-17T15:27:12.265Z,17.39
2022-10-17T15:28:12.436Z,17.41
2022-10-17T15:29:12.633Z,17.41
2022-10-17T15:30:12.939Z,17.38
2022-10-17T15:31:12.971Z,17.36
2022-10-17T15:32:13.163Z,17.38
2022-10-17T15:33:13.346Z,17.36
2022-10-17T15:34:13.645Z,17.34
2022-10-17T15:35:13.785Z,17.33
2022-10-17T15:36:14.027Z,17.33
2022-10-17T15:37:14.313Z,17.33
2022-10-17T15:38:14.465Z,17.31
2022-10-17T15:39:14.641Z,17.30
2022-10-17T15:40:14.796Z,17.31
2022-10-17T15:41:14.961Z,17.31
2022-10-17T15:42:15.165Z,17.30
2022-10-17T15:43:19.691Z,17.31
2022-10-17T15:44:15.560Z,17.31
2022-10-17T15:45:15.714Z,17.30
2022-10-17T15:46:15.914Z,17.30
2022-10-17T15:47:16.099Z,17.29
2022-10-17T15:48:16.284Z,17.29
2022-10-17T15:49:16.450Z,17.29
2022-10-17T15:50:16.622Z,17.27
2022-10-17T15:51:16.800Z,17.29
2022-10-17T15:52:17.014Z,17.30
2022-10-17T15:53:17.158Z,17.31
2022-10-17T15:54:17.334Z,17.30
2022-10-17T15:55:17.485Z,17.30
2022-10-17T15:56:17.668Z,17.29
2022-10-17T15:57:17.844Z,17.33
2022-10-17T15:58:18.023Z,17.30
2022-10-17T15:59:18.221Z,17.30
2022-10-17T16:00:18.394Z,17.33
2022-10-17T16:01:18.611Z,17.31
2022-10-17T16:02:18.762Z,17.31
2022-10-17T16:03:19.021Z,17.30
2022-10-17T16:04:19.205Z,17.30
2022-10-17T16:05:19.389Z,17.29
2022-10-17T16:06:19.567Z,17.30
2022-10-17T16:07:19.816Z,17.29
2022-10-17T16:08:19.908Z,17.27
2022-10-17T16:09:20.092Z,17.26
2022-10-17T16:10:20.286Z,17.26
2022-10-17T16:11:20.443Z,17.24
2022-10-17T16:12:20.672Z,17.24
2022-10-17T16:13:21.327Z,17.23
2022-10-17T16:14:21.113Z,17.24
2022-10-17T16:15:21.328Z,17.24
2022-10-17T16:16:21.625Z,17.23
2022-10-17T16:17:21.925Z,17.20
2022-10-17T16:18:22.204Z,17.22
2022-10-17T16:19:22.459Z,17.20
2022-10-17T16:20:22.671Z,17.20
2022-10-17T16:21:22.962Z,17.19
2022-10-17T16:22:23.243Z,17.19
2022-10-17T16:23:23.408Z,17.19
2022-10-17T16:24:23.612Z,17.19
2022-10-17T16:25:23.771Z,17.16
2022-10-17T16:26:23.965Z,17.15
2022-10-17T16:27:24.272Z,17.16
2022-10-17T16:28:24.636Z,17.15
2022-10-17T16:29:24.705Z,17.16
2022-10-17T16:30:24.899Z,17.15
2022-10-17T16:31:25.474Z,17.14
2022-10-17T16:32:25.378Z,17.14
2022-10-17T16:33:25.529Z,17.14
2022-10-17T16:34:25.728Z,17.12
2022-10-17T16:35:25.891Z,17.12
2022-10-17T16:36:26.073Z,17.14
2022-10-17T16:37:26.268Z,17.14
2022-10-17T16:38:26.513Z,17.12
2022-10-17T16:40:26.991Z,17.12
2022-10-17T16:41:27.161Z,17.11
2022-10-17T16:42:27.578Z,17.11
2022-10-17T16:43:27.683Z,17.11
2022-10-17T16:44:28.188Z,17.09
2022-10-17T16:45:28.469Z,17.14
2022-10-17T16:46:28.862Z,17.12
2022-10-17T16:47:29.248Z,17.12
2022-10-17T16:48:29.933Z,17.14
2022-10-17T16:49:29.941Z,17.12
2022-10-17T16:50:30.301Z,17.12
2022-10-17T16:51:30.691Z,17.12
2022-10-17T16:52:31.312Z,17.12
2022-10-17T16:53:31.391Z,17.12
2022-10-17T16:54:31.749Z,17.11
2022-10-17T16:55:32.126Z,17.08
2022-10-17T16:56:32.502Z,17.09
2022-10-17T16:57:32.916Z,17.06
2022-10-17T16:58:33.234Z,17.04
2022-10-17T16:59:33.609Z,17.05
2022-10-17T17:00:34.028Z,17.04
2022-10-17T17:01:34.318Z,17.04
2022-10-17T17:02:35.060Z,17.04